Tiempo atmosférico en la estación meteorológica de Cebreros, Ávila (850 m.)



Fecha
DESCASC
Temp. máxima en grados centígrados (hora)
DESCASC
Temp. mínima en grados centígrados (hora)
DESCASC
Temp. media en grados centígrados
DESCASC
Racha de viento máxima en m/sg (hora)
DESCASC
Velocidad máxima media en intervalos de 10 minutos(hora)
DESCASC
Precipitaciones diarias en mm
DESCASC
Precipitaciones de 00:00 a 06:00 en mm
DESCASC
Precipitaciones de 06:00 a 12:00 en mm
DESCASC
Precipitaciones de 12:00 a 18:00 en mm
DESCASC
Precipitaciones de 18:00 a 24:00 en mm
DESCASC
06-07-2020 36.1 (17:20) 20.2 (07:10) 28.1 10 (22:50) 4.72 (17:30) 0 0 0 0 0
05-07-2020 36.3 (17:40) 17 (05:50) 26.6 12.22 (18:40) 4.72 (02:30) 0 0 0 0 0
04-07-2020 33.1 (17:30) 17.6 (05:30) 25.3 10.28 (00:30) 4.72 (00:20) 0 0 0 0 0
03-07-2020 31.3 (18:20) 14.1 (06:40) 22.7 11.67 (03:10) 5.83 (03:10) 0 0 0 0 0
02-07-2020 30.6 (13:20) 18.2 (00:00) 24.4 10.83 (02:40) 6.11 (02:50) 0 0 0 0 0
01-07-2020 34.1 (15:30) 20.4 (00:00) 27.2 9.72 (14:00) 4.72 (02:30) 0 0 0 0 0
30-06-2020 36.4 (16:20) 19.3 (00:00) 27.9 9.17 (14:20) 4.17 (23:10) 0 0 0 0 0
29-06-2020 35.6 (19:10) 19.5 (00:00) 27.5 13.61 (01:20) 6.94 (01:10) 0 0 0 0 0
28-06-2020 34.1 (16:50) 17.9 (00:00) 26 11.11 (00:20) 5.56 (00:20) 0 0 0 0 0
27-06-2020 31.4 (15:50) 16.7 (00:00) 24.1 12.22 (03:20) 6.11 (02:00) 0 0 0 0 0
26-06-2020 31.2 (17:20) 16.3 (00:00) 23.8 8.89 (14:30) 4.17 (23:59) 0 0 0 0 0
25-06-2020 33.6 (17:00) 19.7 (00:00) 26.6 7.5 (16:10) 3.61 (16:10) 0 0 0 0 0
24-06-2020 31.4 (18:10) 19.3 (00:00) 25.3 10.28 (16:00) 5.83 (15:20) 0.4 0 0.2 0.2 0
23-06-2020 36.2 (17:50) 18.7 (00:00) 27.5 8.61 (16:40) 3.61 (01:20) 0 0 0 0 0
22-06-2020 34.7 (19:40) 15.8 (00:00) 25.3 8.06 (14:50) 3.61 (01:10) 0 0 0 0 0
21-06-2020 32.5 (17:20) 18.2 (00:00) 25.4 10.83 (03:30) 5.83 (03:30) 0 0 0 0 0
20-06-2020 31.2 (17:10) 16.3 (00:00) 23.8 9.72 (23:40) 4.72 (23:40) 0 0 0 0 0
19-06-2020 28.8 (16:00) 13.2 (00:00) 21 8.89 (13:30) 4.17 (23:30) 0 0 0 0 0
18-06-2020 28.9 (16:40) 12.7 (00:00) 20.8 7.5 (23:59) 4.17 (14:30) 0 0 0 0 0
17-06-2020 24.3 (16:50) 10.4 (00:00) 17.3 10.83 (02:30) 6.39 (02:30) 0 0 0 0 0
16-06-2020 24.3 (16:30) 13.2 (00:00) 18.7 13.06 (03:30) 6.39 (03:20) 0 0 0 0 0
15-06-2020 26.5 (15:20) 13.1 (00:00) 19.8 10 (23:40) 4.17 (01:40) 0.6 0 0 0 0.6
14-06-2020 25.1 (15:20) 10.8 (07:10) 18 10 (23:20) 4.44 (02:20) 0 0 0 0 0
13-06-2020 22.2 (14:50) 8.2 (00:40) 15.2 9.17 (09:30) 4.44 (09:30) 0 0 0 0 0
12-06-2020 19.9 (17:20) 6.9 (06:50) 13.4 11.11 (01:20) 5.56 (19:50) 2.2 0 0 0.4 1.8

Gráficas

Temp. máximas Temp. mínimas Temp. medias Precipitaciones Rachas de viento máximas Velocidades máximas media en intervalos de 10 minutos

Datos horarios

Fecha y hora oficial Temperatura (ºC) Velocidad del viento (km/h) Dirección del viento Racha (km/h) Dirección de racha Precipitación (mm) Presión (hPa) Tendencia (hPa) Humedad (%)
2020-07-06 23:00:00 27.3 15 Norte 36 Norte 0 -- -- 39
2020-07-06 22:00:00 29 12 Norte 28 Norte 0 -- -- 38
2020-07-06 21:00:00 30.7 12 Nordeste 24 Nordeste 0 -- -- 34
2020-07-06 20:00:00 33.8 12 Nordeste 31 Nordeste 0 -- -- 28
2020-07-06 19:00:00 34.5 14 Nordeste 29 Nordeste 0 -- -- 27
2020-07-06 18:00:00 35.6 8 Norte 32 Nordeste 0 -- -- 25
2020-07-06 17:00:00 35 8 Nordeste 24 Nordeste 0 -- -- 26
2020-07-06 16:00:00 35.3 13 Nordeste 26 Norte 0 -- -- 25
2020-07-06 15:00:00 35.1 7 Norte 25 Oeste 0 -- -- 24
2020-07-06 14:00:00 34.3 6 Norte 31 Nordeste 0 -- -- 26
2020-07-06 13:00:00 34.1 9 Norte 25 Nordeste 0 -- -- 27
2020-07-06 12:00:00 33.9 9 Sur 17 Sudeste 0 -- -- 27
2020-07-06 11:00:00 32.3 4 Sur 11 Sur 0 -- -- 28
2020-07-06 10:00:00 30.9 5 Sur 9 Sudoeste 0 -- -- 29
2020-07-06 09:00:00 27.9 3 Sudeste 5 Sur 0 -- -- 34
2020-07-06 08:00:00 24.7 0 Calma 12 Noroeste 0 -- -- 38
2020-07-06 07:00:00 20.3 2 Sudoeste 11 Oeste 0 -- -- 42
2020-07-06 06:00:00 21.5 3 Nordeste 8 Nordeste 0 -- -- 38
2020-07-06 05:00:00 23.4 3 Nordeste 22 Noroeste 0 -- -- 34
2020-07-06 04:00:00 22.8 7 Noroeste 10 Noroeste 0 -- -- 34
2020-07-06 03:00:00 23.8 0 Calma 8 Sudeste 0 -- -- 32
2020-07-06 02:00:00 25.6 3 Sudeste 12 Nordeste 0 -- -- 29
2020-07-06 01:00:00 27.1 5 Oeste 21 Noroeste 0 -- -- 27
2020-07-06 00:00:00 27.7 8 Noroeste 23 Noroeste 0 -- -- 25
2020-07-05 23:00:00 28.2 11 Norte 23 Norte 0 -- -- 25
2020-07-05 22:00:00 29.2 8 Norte 20 Noroeste 0 -- -- 24
2020-07-05 21:00:00 31.2 7 Norte 23 Norte 0 -- -- 23
2020-07-05 20:00:00 34.8 8 Norte 27 Nordeste 0 -- -- 19
2020-07-05 19:00:00 34.8 12 Noroeste 44 Sur 0 -- -- 19
2020-07-05 18:00:00 35.7 10 Sur 24 Sudeste 0 -- -- 20
2020-07-05 17:00:00 36.2 9 Sur 25 Sudeste 0 -- -- 20
2020-07-05 16:00:00 34.7 9 Este 28 Sudeste 0 -- -- 20
2020-07-05 15:00:00 34.1 8 Sur 24 Sudeste 0 -- -- 21
2020-07-05 14:00:00 34.5 8 Sudoeste 21 Sur 0 -- -- 21
2020-07-05 13:00:00 33.1 7 Sudoeste 18 Sur 0 -- -- 24
2020-07-05 12:00:00 31.4 5 Sudoeste 19 Sur 0 -- -- 28
2020-07-05 11:00:00 28.6 5 Sudeste 14 Sudeste 0 -- -- 29
2020-07-05 10:00:00 28.8 4 Sur 8 Sudoeste 0 -- -- 26
2020-07-05 09:00:00 26.4 2 Este 5 Este 0 -- -- 27
2020-07-05 08:00:00 21.9 3 Noroeste 7 Noroeste 0 -- -- 31
2020-07-05 07:00:00 19 4 Noroeste 6 Noroeste 0 -- -- 31
2020-07-05 06:00:00 17.3 3 Noroeste 12 Noroeste 0 -- -- 32
2020-07-05 05:00:00 18.8 3 Norte 7 Oeste 0 -- -- 28
2020-07-05 04:00:00 20.1 3 Oeste 12 Oeste 0 -- -- 25
2020-07-05 03:00:00 22.6 7 Noroeste 27 Oeste 0 -- -- 22
2020-07-05 02:00:00 24 14 Oeste 23 Noroeste 0 -- -- 20
2020-07-05 01:00:00 24.8 4 Oeste 11 Oeste 0 -- -- 19
2020-07-05 00:00:00 25.6 7 Oeste 22 Norte 0 -- -- 21
2020-07-04 23:00:00 26.1 9 Norte 24 Norte 0 -- -- 21
2020-07-04 22:00:00 27 9 Norte 20 Noroeste 0 -- -- 21
2020-07-04 21:00:00 28.7 6 Norte 18 Norte 0 -- -- 19
2020-07-04 20:00:00 32.5 7 Norte 20 Norte 0 -- -- 17
2020-07-04 19:00:00 32.4 12 Norte 26 Nordeste 0 -- -- 18
2020-07-04 18:00:00 32.6 10 Norte 26 Norte 0 -- -- 19
2020-07-04 17:00:00 31.9 10 Nordeste 25 Noroeste 0 -- -- 21
2020-07-04 16:00:00 32.6 8 Norte 23 Norte 0 -- -- 21
2020-07-04 15:00:00 32.2 11 Norte 28 Nordeste 0 -- -- 22
2020-07-04 14:00:00 30.7 7 Sudeste 20 Sudeste 0 -- -- 23
2020-07-04 13:00:00 30.5 7 Sur 16 Sudeste 0 -- -- 24
2020-07-04 12:00:00 28.8 6 Sudeste 15 Sudeste 0 -- -- 25
2020-07-04 11:00:00 27.1 5 Sur 13 Sur 0 -- -- 27
2020-07-04 10:00:00 25.8 5 Sur 11 Sudeste 0 -- -- 28
2020-07-04 09:00:00 22.8 4 Este 8 Nordeste 0 -- -- 31
2020-07-04 08:00:00 19.9 4 Nordeste 9 Norte 0 -- -- 36
2020-07-04 07:00:00 18.2 5 Oeste 14 Oeste 0 -- -- 38
2020-07-04 06:00:00 17.7 4 Sudoeste 10 Oeste 0 -- -- 38
2020-07-04 05:00:00 19 4 Sur 26 Noroeste 0 -- -- 36
2020-07-04 04:00:00 19.8 5 Noroeste 19 Oeste 0 -- -- 35
2020-07-04 03:00:00 21.1 10 Noroeste 31 Noroeste 0 -- -- 32
2020-07-04 02:00:00 21.4 13 Noroeste 31 Noroeste 0 -- -- 32
2020-07-04 01:00:00 21.8 13 Noroeste 37 Norte 0 -- -- 32
2020-07-04 00:00:00 22.6 14 Norte 32 Noroeste 0 -- -- 32
2020-07-03 23:00:00 23.4 11 Noroeste 29 Noroeste 0 -- -- 30
2020-07-03 22:00:00 24.7 6 Norte 18 Norte 0 -- -- 26
2020-07-03 21:00:00 26.6 6 Norte 19 Noroeste 0 -- -- 23
2020-07-03 20:00:00 30.4 7 Norte 25 Noroeste 0 -- -- 19
2020-07-03 19:00:00 30.8 9 Nordeste 23 Nordeste 0 -- -- 18
2020-07-03 18:00:00 31 8 Norte 23 Oeste 0 -- -- 17
2020-07-03 17:00:00 31.2 7 Norte 22 Oeste 0 -- -- 18
2020-07-03 16:00:00 30.6 6 Oeste 23 Sur 0 -- -- 25
2020-07-03 15:00:00 30.1 9 Sur 26 Sudeste 0 -- -- 25
2020-07-03 14:00:00 28.5 6 Sudeste 22 Sudoeste 0 -- -- 28
2020-07-03 13:00:00 27.3 6 Sur 20 Sur 0 -- -- 31
2020-07-03 12:00:00 26 7 Sur 23 Sur 0 -- -- 35
2020-07-03 11:00:00 24.4 8 Sudeste 18 Sudeste 0 -- -- 39
2020-07-03 10:00:00 23.7 6 Nordeste 16 Noroeste 0 -- -- 40
2020-07-03 09:00:00 21.2 5 Sudeste 9 Sudeste 0 -- -- 44
2020-07-03 08:00:00 19.2 2 Nordeste 14 Oeste 0 -- -- 47
2020-07-03 07:00:00 14.8 5 Oeste 12 Noroeste 0 -- -- 57
2020-07-03 06:00:00 15.2 2 Nordeste 19 Noroeste 0 -- -- 55
2020-07-03 05:00:00 16.8 10 Oeste 30 Noroeste 0 -- -- 50
2020-07-03 04:00:00 17.5 18 Noroeste 42 Noroeste 0 -- -- 48
2020-07-03 03:00:00 17.7 19 Noroeste 38 Noroeste 0 -- -- 47
2020-07-03 02:00:00 18.6 12 Norte 39 Norte 0 -- -- 43
2020-07-03 01:00:00 19.9 18 Noroeste 41 Noroeste 0 -- -- 40
2020-07-03 00:00:00 21.1 15 Norte 38 Norte 0 -- -- 38
2020-07-02 23:00:00 22.6 16 Noroeste 38 Norte 0 -- -- 30
2020-07-02 22:00:00 23.8 13 Noroeste 33 Norte 0 -- -- 33
2020-07-02 21:00:00 25.6 12 Norte 29 Noroeste 0 -- -- 33
2020-07-02 20:00:00 27.2 8 Oeste 22 Oeste 0 -- -- 35
2020-07-02 19:00:00 28.3 7 Sudoeste 19 Sur 0 -- -- 34
2020-07-02 18:00:00 29.3 8 Oeste 17 Oeste 0 -- -- 33
2020-07-02 17:00:00 29.5 7 Oeste 20 Sudeste 0 -- -- 29
2020-07-02 16:00:00 28.3 7 Noroeste 20 Noroeste 0 -- -- 33
2020-07-02 15:00:00 30 10 Oeste 29 Noroeste 0 -- -- 32
2020-07-02 14:00:00 30.3 6 Sudeste 21 Sudoeste 0 -- -- 29
2020-07-02 13:00:00 29.2 9 Sudeste 18 Sudoeste 0 -- -- 32
2020-07-02 12:00:00 27.3 8 Sudoeste 19 Oeste 0 -- -- 38
2020-07-02 11:00:00 25.6 10 Noroeste 24 Noroeste 0 -- -- 44
2020-07-02 10:00:00 23.5 11 Noroeste 30 Noroeste 0 -- -- 49
2020-07-02 09:00:00 21.2 15 Noroeste 29 Noroeste 0 -- -- 55
2020-07-02 08:00:00 19.9 13 Noroeste 28 Noroeste 0 -- -- 59
2020-07-02 07:00:00 18.2 6 Noroeste 34 Noroeste 0 -- -- 64
2020-07-02 06:00:00 19.1 13 Oeste 33 Oeste 0 -- -- 60
2020-07-02 05:00:00 19.9 14 Noroeste 36 Noroeste 0 -- -- 56
2020-07-02 04:00:00 20.9 12 Noroeste 39 Noroeste 0 -- -- 50
2020-07-02 03:00:00 22 22 Noroeste 39 Noroeste 0 -- -- 46
2020-07-02 02:00:00 23 19 Noroeste 38 Noroeste 0 -- -- 41
2020-07-02 01:00:00 23.7 13 Noroeste 30 Noroeste 0 -- -- 38
2020-07-02 00:00:00 24.9 13 Noroeste 23 Norte 0 -- -- 34
2020-07-01 23:00:00 26.5 10 Noroeste 23 Noroeste 0 -- -- 34
2020-07-01 22:00:00 27.5 6 Oeste 17 Oeste 0 -- -- 33
2020-07-01 21:00:00 28.2 9 Oeste 23 Oeste 0 -- -- 33
2020-07-01 20:00:00 29.6 9 Sudoeste 18 Sudoeste 0 -- -- 35
2020-07-01 19:00:00 30.4 7 Oeste 27 Oeste 0 -- -- 27
2020-07-01 18:00:00 32 10 Oeste 27 Sudoeste 0 -- -- 25
2020-07-01 17:00:00 31.7 11 Oeste 30 Noroeste 0 -- -- 23
2020-07-01 16:00:00 32.2 7 Noroeste 19 Noroeste 0 -- -- 25
2020-07-01 15:00:00 31.6 5 Oeste 21 Sudeste 0 -- -- 29
2020-07-01 14:00:00 32.6 12 Norte 35 Sudoeste 0 -- -- 29
2020-07-01 13:00:00 30.4 12 Sudeste 25 Sudeste 0 -- -- 30
2020-07-01 12:00:00 30.3 10 Sudeste 22 Sudeste 0 -- -- 30
2020-07-01 11:00:00 29.4 6 Sudeste 13 Sudeste 0 -- -- 33
2020-07-01 10:00:00 28.6 3 Sur 9 Sudoeste 0 -- -- 39
2020-07-01 09:00:00 26.8 3 Sudoeste 10 Sudoeste 0 -- -- 43
2020-07-01 08:00:00 23.6 3 Nordeste 15 Oeste 0 -- -- 50
2020-07-01 07:00:00 21.5 5 Oeste 11 Sudoeste 0 -- -- 55
2020-07-01 06:00:00 21.6 4 Noroeste 14 Oeste 0 -- -- 52
2020-07-01 05:00:00 22.5 3 Oeste 23 Noroeste 0 -- -- 46
2020-07-01 04:00:00 23.8 13 Noroeste 30 Oeste 0 -- -- 46
2020-07-01 03:00:00 25 13 Noroeste 33 Oeste 0 -- -- 43
2020-07-01 02:00:00 25.6 13 Noroeste 30 Noroeste 0 -- -- 38
2020-07-01 01:00:00 26.1 17 Oeste 30 Oeste 0 -- -- 38
2020-07-01 00:00:00 26.6 12 Oeste 24 Oeste 0 -- -- 35
2020-06-30 23:00:00 27.2 11 Noroeste 16 Noroeste 0 -- -- 34
2020-06-30 22:00:00 28.8 5 Oeste 15 Oeste 0 -- -- 31
2020-06-30 21:00:00 30.4 4 Oeste 23 Sudoeste 0 -- -- 31
2020-06-30 20:00:00 34 6 Sudoeste 22 Oeste 0 -- -- 26
2020-06-30 19:00:00 34.6 9 Sudoeste 29 Sur 0 -- -- 24
2020-06-30 18:00:00 35.5 8 Sur 25 Sur 0 -- -- 23
2020-06-30 17:00:00 35.2 12 Oeste 27 Oeste 0 -- -- 24
2020-06-30 16:00:00 35.4 10 Sur 25 Sudeste 0 -- -- 25
2020-06-30 15:00:00 35.7 10 Sur 33 Sur 0 -- -- 24
2020-06-30 14:00:00 34.5 11 Sur 28 Sudeste 0 -- -- 26
2020-06-30 13:00:00 33.1 8 Sudeste 20 Sur 0 -- -- 32
2020-06-30 12:00:00 32.2 8 Sur 14 Sur 0 -- -- 33
2020-06-30 11:00:00 30.1 6 Sudeste 13 Sudeste 0 -- -- 35
2020-06-30 10:00:00 29.5 4 Sur 8 Sudoeste 0 -- -- 35
2020-06-30 09:00:00 28.2 3 Sur 5 Sudeste 0 -- -- 35
2020-06-30 08:00:00 24.8 0 Calma 12 Noroeste 0 -- -- 45
2020-06-30 07:00:00 19.3 5 Norte 17 Noroeste 0 -- -- 52
2020-06-30 06:00:00 21.1 6 Noroeste 16 Oeste 0 -- -- 47
2020-06-30 05:00:00 21.5 3 Norte 13 Oeste 0 -- -- 46
2020-06-30 04:00:00 22.3 5 Noroeste 14 Este 0 -- -- 44
2020-06-30 03:00:00 23.7 4 Sur 10 Sur -- -- -- 41
2020-06-30 02:00:00 23.8 4 Sudoeste 11 Sur 0 -- -- 40
2020-06-30 01:00:00 25.4 6 Oeste 16 Oeste 0 -- -- 37
2020-06-30 00:00:00 26.7 8 Norte 27 Noroeste 0 -- -- 35
2020-06-29 23:00:00 27.5 5 Oeste 24 Noroeste 0 -- -- 34
2020-06-29 22:00:00 28.3 7 Norte 18 Noroeste 0 -- -- 34
2020-06-29 21:00:00 30.6 8 Norte 17 Noroeste 0 -- -- 30
2020-06-29 20:00:00 34.6 5 Sudoeste 17 Sudoeste 0 -- -- 24
2020-06-29 19:00:00 35.3 7 Sur 19 Sudeste 0 -- -- 23
2020-06-29 18:00:00 34.3 10 Sur 25 Sudeste 0 -- -- 24
2020-06-29 17:00:00 35.1 9 Sudoeste 22 Sudeste 0 -- -- 22
2020-06-29 16:00:00 34.3 12 Sudeste 29 Este 0 -- -- 23
2020-06-29 15:00:00 34.5 8 Sur 27 Sudeste 0 -- -- 23
2020-06-29 14:00:00 33.8 8 Sur 27 Sudeste 0 -- -- 26
2020-06-29 13:00:00 31.2 8 Sudeste 27 Sudeste 0 -- -- 33
2020-06-29 12:00:00 29.7 8 Sudeste 19 Sudeste 0 -- -- 38
2020-06-29 11:00:00 28.9 5 Sudeste 13 Sur 0 -- -- 40
2020-06-29 10:00:00 28.1 5 Sur 9 Sudeste 0 -- -- 44
2020-06-29 09:00:00 24.8 4 Sudeste 17 Noroeste 0 -- -- 50
2020-06-29 08:00:00 21.7 14 Noroeste 26 Oeste 0 -- -- 58
2020-06-29 07:00:00 19.6 10 Noroeste 24 Noroeste 0 -- -- 64
2020-06-29 06:00:00 19.7 9 Oeste 24 Noroeste 0 -- -- 63
2020-06-29 05:00:00 20.2 10 Noroeste 32 Noroeste 0 -- -- 62
2020-06-29 04:00:00 20.9 18 Noroeste 38 Noroeste 0 -- -- 60
2020-06-29 03:00:00 21.7 21 Noroeste 43 Noroeste 0 -- -- 57
2020-06-29 02:00:00 22.7 22 Noroeste 49 Noroeste 0 -- -- 53
2020-06-29 01:00:00 23.9 24 Noroeste 42 Noroeste 0 -- -- 49
2020-06-29 00:00:00 25 15 Noroeste 29 Noroeste 0 -- -- 44
2020-06-28 23:00:00 26.2 15 Noroeste 29 Noroeste 0 -- -- 38
2020-06-28 22:00:00 27.3 10 Noroeste 21 Norte 0 -- -- 37
2020-06-28 21:00:00 28.9 6 Norte 21 Noroeste 0 -- -- 34
2020-06-28 20:00:00 32.4 3 Norte 10 Sudoeste 0 -- -- 30
2020-06-28 19:00:00 30.4 4 Oeste 15 Noroeste 0 -- -- 33
2020-06-28 18:00:00 32.4 3 Noroeste 17 Noroeste 0 -- -- 30
2020-06-28 17:00:00 33.3 6 Sur 17 Sur 0 -- -- 29
2020-06-28 16:00:00 31.3 6 Oeste 20 Sur 0 -- -- 32
2020-06-28 15:00:00 32.2 9 Sur 22 Sudeste 0 -- -- 31
2020-06-28 14:00:00 30.3 13 Sudeste 23 Sudeste 0 -- -- 33
2020-06-28 13:00:00 29.2 5 Sur 23 Sudeste 0 -- -- 37
2020-06-28 12:00:00 28.6 8 Sur 19 Sudeste 0 -- -- 41
2020-06-28 11:00:00 27.4 8 Sudeste 15 Sudeste 0 -- -- 43
2020-06-28 10:00:00 26 5 Noroeste 21 Oeste 0 -- -- 48
2020-06-28 09:00:00 22.8 10 Oeste 23 Oeste 0 -- -- 57
2020-06-28 08:00:00 20.5 10 Noroeste 28 Oeste 0 -- -- 64
2020-06-28 07:00:00 17.9 11 Oeste 32 Noroeste 0 -- -- 70
2020-06-28 06:00:00 18.5 15 Noroeste 35 Oeste 0 -- -- 67
2020-06-28 05:00:00 19.1 19 Noroeste 36 Oeste 0 -- -- 65
2020-06-28 04:00:00 19.5 18 Noroeste 39 Noroeste 0 -- -- 62
2020-06-28 03:00:00 20.2 18 Noroeste 39 Oeste 0 -- -- 58
2020-06-28 02:00:00 20.9 18 Noroeste 37 Noroeste 0 -- -- 55
2020-06-28 01:00:00 21.5 18 Noroeste 40 Noroeste 0 -- -- 52
2020-06-28 00:00:00 22.3 18 Noroeste 43 Noroeste 0 -- -- 50
2020-06-27 23:00:00 23.1 12 Noroeste 32 Noroeste 0 -- -- 49
2020-06-27 22:00:00 24.5 12 Noroeste 28 Norte 0 -- -- 45
2020-06-27 21:00:00 26 8 Norte 24 Noroeste 0 -- -- 40
2020-06-27 20:00:00 27.5 9 Noroeste 24 Nordeste 0 -- -- 36
2020-06-27 19:00:00 28.3 10 Norte 27 Norte 0 -- -- 34
2020-06-27 18:00:00 30.2 9 Norte 24 Oeste 0 -- -- 33
2020-06-27 17:00:00 30 11 Nordeste 23 Norte 0 -- -- 33
2020-06-27 16:00:00 30.7 8 Norte 21 Nordeste 0 -- -- 32
2020-06-27 15:00:00 29.8 10 Sudeste 27 Sudeste 0 -- -- 33
2020-06-27 14:00:00 29.8 8 Sudoeste 21 Sudoeste 0 -- -- 34
2020-06-27 13:00:00 28.6 9 Sur 21 Sur 0 -- -- 35
2020-06-27 12:00:00 27.7 7 Sur 27 Sur 0 -- -- 37
2020-06-27 11:00:00 26 8 Sur 17 Noroeste 0 -- -- 40
2020-06-27 10:00:00 23 8 Oeste 17 Oeste 0 -- -- 50
2020-06-27 09:00:00 20.9 7 Noroeste 28 Noroeste 0 -- -- 56
2020-06-27 08:00:00 18.4 10 Noroeste 28 Noroeste 0 -- -- 64
2020-06-27 07:00:00 16.7 12 Noroeste 32 Noroeste 0 -- -- 68
2020-06-27 06:00:00 17.1 17 Noroeste 36 Noroeste 0 -- -- 66
2020-06-27 05:00:00 17.6 16 Noroeste 37 Noroeste 0 -- -- 64
2020-06-27 04:00:00 18.3 21 Noroeste 44 Noroeste 0 -- -- 60
2020-06-27 03:00:00 19.1 17 Noroeste 41 Noroeste 0 -- -- 54
2020-06-27 02:00:00 19.8 22 Noroeste 42 Noroeste 0 -- -- 51
2020-06-27 01:00:00 20.7 17 Noroeste 33 Noroeste 0 -- -- 45
2020-06-27 00:00:00 21.8 15 Noroeste 31 Noroeste 0 -- -- 41
2020-06-26 23:00:00 22.4 13 Noroeste 28 Noroeste 0 -- -- 35
2020-06-26 22:00:00 22.8 5 Oeste 17 Oeste 0 -- -- 26
2020-06-26 21:00:00 25.3 4 Oeste 17 Oeste 0 -- -- 21
2020-06-26 20:00:00 26.9 4 Sudoeste 16 Sur 0 -- -- 23
2020-06-26 19:00:00 30 8 Sur 22 Sudoeste 0 -- -- 22
2020-06-26 18:00:00 30.8 10 Sudoeste 25 Sudoeste 0 -- -- 20
2020-06-26 17:00:00 30.7 11 Sur 28 Sur 0 -- -- 19
2020-06-26 16:00:00 30.2 12 Sur 27 Sudoeste 0 -- -- 19
2020-06-26 15:00:00 30.8 9 Sur 32 Sudoeste 0 -- -- 20
2020-06-26 14:00:00 28.1 12 Sur 27 Sudeste 0 -- -- 26
2020-06-26 13:00:00 27.6 12 Sur 30 Sur 0 -- -- 28
2020-06-26 12:00:00 28.1 11 Sudeste 24 Sudeste 0 -- -- 29
2020-06-26 11:00:00 25.7 10 Sur 19 Sudeste 0 -- -- 40
2020-06-26 10:00:00 23.1 2 Sur 8 Sur 0 -- -- 51
2020-06-26 09:00:00 23.8 5 Sudeste 9 Sur 0 -- -- 50
2020-06-26 08:00:00 21 0 Calma 8 Noroeste 0 -- -- 58
2020-06-26 07:00:00 17.4 5 Noroeste 9 Noroeste 0 -- -- 65
2020-06-26 06:00:00 17.5 3 Noroeste 5 Noroeste 0 -- -- 63
2020-06-26 05:00:00 18.1 2 Norte 7 Oeste 0 -- -- 61
2020-06-26 04:00:00 19.7 4 Oeste 9 Oeste 0 -- -- 53
2020-06-26 03:00:00 20.8 3 Sudoeste 16 Oeste 0 -- -- 50
2020-06-26 02:00:00 22.6 12 Noroeste 19 Noroeste 0 -- -- 45
2020-06-26 01:00:00 23.3 4 Noroeste 17 Oeste 0 -- -- 43
2020-06-26 00:00:00 24.7 5 Oeste 17 Sudoeste 0 -- -- 38
2020-06-25 23:00:00 25.3 8 Oeste 20 Oeste 0 -- -- 37
2020-06-25 22:00:00 26.3 9 Oeste 22 Oeste 0 -- -- 36
2020-06-25 21:00:00 27.3 5 Oeste 18 Oeste 0 -- -- 34
2020-06-25 20:00:00 30.3 7 Sudoeste 23 Sudoeste 0 -- -- 31
2020-06-25 19:00:00 32.8 8 Sudoeste 22 Sudoeste 0 -- -- 28
2020-06-25 18:00:00 32.8 8 Sudoeste 26 Sur 0 -- -- 28
2020-06-25 17:00:00 33.6 9 Sudoeste 27 Sur 0 -- -- 29
2020-06-25 16:00:00 33.4 10 Sur 23 Sudoeste 0 -- -- 29
2020-06-25 15:00:00 32.7 12 Sur 26 Sur 0 -- -- 30
2020-06-25 14:00:00 31.4 8 Sudeste 26 Sudeste 0 -- -- 32
2020-06-25 13:00:00 30.4 7 Sur 19 Sur 0 -- -- 34
2020-06-25 12:00:00 29.3 6 Sur 19 Sur 0 -- -- 37
2020-06-25 11:00:00 27.8 7 Sudeste 15 Este 0 -- -- 40
2020-06-25 10:00:00 25.6 6 Sudeste 14 Sudeste 0 -- -- 43
2020-06-25 09:00:00 25.4 4 Sudoeste 8 Sudoeste 0 -- -- 44
2020-06-25 08:00:00 22.5 0 Calma 8 Norte 0 -- -- 50
2020-06-25 07:00:00 20.6 3 Noroeste 8 Norte 0 -- -- 53
2020-06-25 06:00:00 20.8 3 Noroeste 9 Norte 0 -- -- 51
2020-06-25 05:00:00 21 5 Noroeste 6 Noroeste 0 -- -- 49
2020-06-25 04:00:00 21.8 5 Noroeste 12 Norte 0 -- -- 46
2020-06-25 03:00:00 22.9 7 Noroeste 10 Noroeste 0 -- -- 41
2020-06-25 02:00:00 22.6 7 Noroeste 12 Noroeste 0 -- -- 41
2020-06-25 01:00:00 20 4 Noroeste 8 Noroeste 0 -- -- 50
2020-06-25 00:00:00 23.3 3 Noroeste 12 Noroeste 0 -- -- 41
2020-06-24 23:00:00 24.9 8 Norte 12 Norte 0 -- -- 38
2020-06-24 22:00:00 25.5 8 Norte 11 Norte 0 -- -- 37
2020-06-24 21:00:00 28 5 Nordeste 21 Este 0 -- -- 34
2020-06-24 20:00:00 29.6 10 Este 23 Sudeste 0 -- -- 32
2020-06-24 19:00:00 30 12 Sudeste 24 Sudeste 0 -- -- 31
2020-06-24 18:00:00 31 10 Este 26 Sudeste 0 -- -- 31
2020-06-24 17:00:00 29.2 14 Sudeste 32 Este 0 -- -- 33
2020-06-24 16:00:00 29 20 Este 37 Nordeste 0 -- -- 35
2020-06-24 15:00:00 29.3 13 Este 26 Este 0 -- -- 36
2020-06-24 14:00:00 26.5 5 Este 13 Nordeste 0 -- -- 44
2020-06-24 13:00:00 24.1 4 Norte 12 Norte 0.2 -- -- 54
2020-06-24 12:00:00 23.4 4 Sudoeste 14 Sur 0 -- -- 58
2020-06-24 11:00:00 23.6 0 Calma 8 Oeste 0 -- -- 52
2020-06-24 10:00:00 23.9 2 Sudoeste 11 Sur 0 -- -- 53
2020-06-24 09:00:00 21.2 3 Sudoeste 16 Norte 0 -- -- 63
2020-06-24 08:00:00 21.3 9 Norte 14 Nordeste 0.2 -- -- 59
2020-06-24 07:00:00 22.4 0 Calma 8 Norte 0 -- -- 46
2020-06-24 06:00:00 21.8 4 Norte 15 Sudeste 0 -- -- 47
2020-06-24 05:00:00 22.1 0 Calma 6 Sudoeste 0 -- -- 45
2020-06-24 04:00:00 22.9 3 Oeste 14 Nordeste 0 -- -- 42
2020-06-24 03:00:00 25 8 Norte 26 Nordeste 0 -- -- 36
2020-06-24 02:00:00 24.3 9 Norte 27 Sudeste 0 -- -- 36
2020-06-24 01:00:00 25.8 10 Noroeste 17 Oeste 0 -- -- 34
2020-06-24 00:00:00 25.5 4 Oeste 11 Nordeste 0 -- -- 34
2020-06-23 23:00:00 27.4 6 Norte 19 Noroeste 0 -- -- 30
2020-06-23 22:00:00 28.2 12 Noroeste 21 Noroeste 0 -- -- 31
2020-06-23 21:00:00 30.6 5 Oeste 15 Sudoeste 0 -- -- 29
2020-06-23 20:00:00 34.3 7 Sur 19 Sudeste 0 -- -- 24
2020-06-23 19:00:00 35.3 8 Sur 22 Sur 0 -- -- 21
2020-06-23 18:00:00 35.9 6 Sudoeste 25 Sudeste 0 -- -- 21
2020-06-23 17:00:00 35.3 8 Sur 31 Sur 0 -- -- 20
2020-06-23 16:00:00 34.7 11 Sur 28 Sur 0 -- -- 24
2020-06-23 15:00:00 33.3 9 Sudeste 20 Sudeste 0 -- -- 27
2020-06-23 14:00:00 32.3 11 Sudeste 21 Sur 0 -- -- 30
2020-06-23 13:00:00 31.2 7 Sur 18 Sur 0 -- -- 33
2020-06-23 12:00:00 28.7 6 Oeste 14 Este 0 -- -- 38
2020-06-23 11:00:00 28.6 3 Sur 14 Sudoeste 0 -- -- 38
2020-06-23 10:00:00 28 6 Sudoeste 12 Sur 0 -- -- 37
2020-06-23 09:00:00 28 4 Sudoeste 8 Sudoeste 0 -- -- 37
2020-06-23 08:00:00 23.6 0 Calma 10 Sudoeste 0 -- -- 45
2020-06-23 07:00:00 20 4 Oeste 9 Sudoeste 0 -- -- 48
2020-06-23 06:00:00 19.7 3 Oeste 5 Oeste 0 -- -- 47
2020-06-23 05:00:00 21.6 0 Calma 8 Noroeste 0 -- -- 40
2020-06-23 04:00:00 21.2 4 Noroeste 9 Noroeste 0 -- -- 41
2020-06-23 03:00:00 21.6 8 Noroeste 13 Noroeste 0 -- -- 39
2020-06-23 02:00:00 21.1 5 Noroeste 22 Noroeste 0 -- -- 40
2020-06-23 01:00:00 21.9 5 Norte 20 Oeste 0 -- -- 38
2020-06-23 00:00:00 23.1 9 Noroeste 15 Oeste 0 -- -- 36
2020-06-22 23:00:00 22.7 2 Norte 9 Oeste 0 -- -- 39
2020-06-22 22:00:00 26.4 6 Noroeste 8 Oeste 0 -- -- 31
2020-06-22 21:00:00 29.1 4 Oeste 10 Sur 0 -- -- 27
2020-06-22 20:00:00 34.2 4 Sudoeste 16 Sur 0 -- -- 21
2020-06-22 19:00:00 34.5 5 Sudoeste 18 Sudeste 0 -- -- 21
2020-06-22 18:00:00 34.1 5 Sur 20 Sudeste 0 -- -- 21
2020-06-22 17:00:00 33.7 8 Sur 23 Sudeste 0 -- -- 23
2020-06-22 16:00:00 33 8 Sur 22 Sudeste 0 -- -- 22
2020-06-22 15:00:00 33.4 7 Sudoeste 29 Sur 0 -- -- 23
2020-06-22 14:00:00 31.5 9 Este 25 Sudeste 0 -- -- 26
2020-06-22 13:00:00 30.1 9 Este 21 Este 0 -- -- 28
2020-06-22 12:00:00 29.7 8 Sur 18 Sudeste 0 -- -- 31
2020-06-22 11:00:00 28.7 5 Sudoeste 14 Sudeste 0 -- -- 32
2020-06-22 10:00:00 28.8 4 Sudoeste 9 Sur 0 -- -- 31
2020-06-22 09:00:00 26.2 2 Este 5 Sudoeste 0 -- -- 35
2020-06-22 08:00:00 22.6 0 Calma 8 Nordeste 0 -- -- 38
2020-06-22 07:00:00 16 3 Noroeste 8 Oeste 0 -- -- 46
2020-06-22 06:00:00 16.8 4 Noroeste 8 Noroeste 0 -- -- 42
2020-06-22 05:00:00 17.1 3 Nordeste 13 Oeste 0 -- -- 41
2020-06-22 04:00:00 19.6 5 Oeste 15 Noroeste 0 -- -- 34
2020-06-22 03:00:00 21.5 12 Noroeste 23 Norte 0 -- -- 31
2020-06-22 02:00:00 24.1 13 Noroeste 27 Noroeste 0 -- -- 26
2020-06-22 01:00:00 24.2 12 Noroeste 29 Norte 0 -- -- 26
2020-06-22 00:00:00 24.5 13 Norte 28 Norte 0 -- -- 28
2020-06-21 23:00:00 25 12 Norte 28 Norte 0 -- -- 29
2020-06-21 22:00:00 25.8 8 Norte 20 Noroeste 0 -- -- 24
2020-06-21 21:00:00 27.5 7 Norte 25 Nordeste 0 -- -- 21
2020-06-21 20:00:00 31 9 Norte 20 Norte 0 -- -- 21
2020-06-21 19:00:00 30.9 12 Norte 32 Norte 0 -- -- 25
2020-06-21 18:00:00 32 10 Noroeste 23 Nordeste 0 -- -- 25
2020-06-21 17:00:00 32.3 7 Norte 21 Nordeste 0 -- -- 24
2020-06-21 16:00:00 31.6 8 Norte 19 Nordeste 0 -- -- 24
2020-06-21 15:00:00 30.5 7 Sudeste 19 Sudeste 0 -- -- 27
2020-06-21 14:00:00 30.9 9 Sudoeste 22 Sur 0 -- -- 29
2020-06-21 13:00:00 30 10 Sur 25 Sur 0 -- -- 31
2020-06-21 12:00:00 29.5 8 Sudoeste 20 Noroeste 0 -- -- 32
2020-06-21 11:00:00 27.4 7 Oeste 20 Sudoeste 0 -- -- 36
2020-06-21 10:00:00 24.6 13 Oeste 27 Oeste 0 -- -- 42
2020-06-21 09:00:00 22 11 Oeste 30 Oeste 0 -- -- 48
2020-06-21 08:00:00 20.2 13 Oeste 30 Noroeste 0 -- -- 50
2020-06-21 07:00:00 18.6 19 Oeste 36 Noroeste 0 -- -- 52
2020-06-21 06:00:00 19 15 Noroeste 36 Noroeste 0 -- -- 49
2020-06-21 05:00:00 19.6 14 Noroeste 35 Oeste 0 -- -- 48
2020-06-21 04:00:00 20.3 16 Noroeste 39 Noroeste 0 -- -- 43
2020-06-21 03:00:00 20.6 12 Noroeste 37 Noroeste 0 -- -- 42
2020-06-21 02:00:00 22 15 Noroeste 35 Noroeste 0 -- -- 36
2020-06-21 01:00:00 22.8 15 Noroeste 36 Noroeste 0 -- -- 33
2020-06-21 00:00:00 23.6 15 Noroeste 35 Noroeste 0 -- -- 34
2020-06-20 23:00:00 24.7 14 Noroeste 27 Noroeste 0 -- -- 33
2020-06-20 22:00:00 25.9 10 Noroeste 23 Noroeste 0 -- -- 31
2020-06-20 21:00:00 27.3 10 Noroeste 21 Noroeste 0 -- -- 28
2020-06-20 20:00:00 29.1 5 Oeste 17 Sudeste 0 -- -- 30
2020-06-20 19:00:00 30.3 8 Sudeste 17 Sudeste 0 -- -- 28
2020-06-20 18:00:00 29 10 Sur 23 Sur 0 -- -- 29
2020-06-20 17:00:00 30.8 11 Sur 25 Sudeste 0 -- -- 27
2020-06-20 16:00:00 30 9 Sudeste 27 Sudeste 0 -- -- 27
2020-06-20 15:00:00 29.3 13 Sudeste 27 Sudeste 0 -- -- 26
2020-06-20 14:00:00 28.3 12 Sudeste 26 Sudeste 0 -- -- 27
2020-06-20 13:00:00 28.8 7 Sur 25 Sur 0 -- -- 29
2020-06-20 12:00:00 27.4 9 Sur 19 Sur 0 -- -- 31
2020-06-20 11:00:00 26.1 6 Sudeste 15 Sudeste 0 -- -- 34
2020-06-20 10:00:00 25.4 5 Sur 12 Sur 0 -- -- 38
2020-06-20 09:00:00 24.2 3 Este 8 Nordeste 0 -- -- 40
2020-06-20 08:00:00 20.7 4 Noroeste 14 Oeste 0 -- -- 45
2020-06-20 07:00:00 16.9 4 Norte 13 Nordeste 0 -- -- 52
2020-06-20 06:00:00 17.6 6 Noroeste 20 Noroeste 0 -- -- 49
2020-06-20 05:00:00 17.8 6 Nordeste 23 Norte 0 -- -- 45
2020-06-20 04:00:00 19.3 10 Noroeste 27 Oeste 0 -- -- 43
2020-06-20 03:00:00 19.3 6 Oeste 19 Noroeste 0 -- -- 39
2020-06-20 02:00:00 20.4 10 Oeste 25 Oeste 0 -- -- 36
2020-06-20 01:00:00 20.7 12 Oeste 29 Noroeste 0 -- -- 35
2020-06-20 00:00:00 22 12 Noroeste 27 Noroeste 0 -- -- 29
2020-06-19 23:00:00 22.7 12 Noroeste 26 Noroeste 0 -- -- 29
2020-06-19 22:00:00 23.6 7 Noroeste 19 Noroeste 0 -- -- 30
2020-06-19 21:00:00 25.7 8 Noroeste 19 Noroeste 0 -- -- 30
2020-06-19 20:00:00 26.3 0 Calma 17 Sur 0 -- -- 35
2020-06-19 19:00:00 26.5 7 Sudeste 16 Sudeste 0 -- -- 34
2020-06-19 18:00:00 26 9 Sudeste 26 Sudeste 0 -- -- 34
2020-06-19 17:00:00 27.5 15 Sur 29 Sudeste 0 -- -- 32
2020-06-19 16:00:00 28.8 10 Sur 24 Sudeste 0 -- -- 31
2020-06-19 15:00:00 27.3 14 Sudeste 27 Sudeste 0 -- -- 31
2020-06-19 14:00:00 26.6 8 Sudeste 32 Este 0 -- -- 31
2020-06-19 13:00:00 26 8 Oeste 23 Sudeste 0 -- -- 34
2020-06-19 12:00:00 24.5 11 Sudeste 22 Sudeste 0 -- -- 36
2020-06-19 11:00:00 24.2 6 Sur 14 Sur 0 -- -- 37
2020-06-19 10:00:00 22.4 7 Sur 15 Sudeste 0 -- -- 41
2020-06-19 09:00:00 20.5 4 Sudeste 8 Sudeste 0 -- -- 46
2020-06-19 08:00:00 18.8 2 Este 6 Sudoeste 0 -- -- 47
2020-06-19 07:00:00 13.6 3 Sur 12 Sudeste 0 -- -- 58
2020-06-19 06:00:00 13.7 4 Noroeste 23 Noroeste 0 -- -- 57
2020-06-19 05:00:00 15.4 5 Noroeste 17 Nordeste 0 -- -- 49
2020-06-19 04:00:00 16.9 6 Nordeste 26 Noroeste 0 -- -- 44
2020-06-19 03:00:00 17.9 11 Noroeste 30 Oeste 0 -- -- 41
2020-06-19 02:00:00 18.8 13 Noroeste 27 Noroeste 0 -- -- 39
2020-06-19 01:00:00 19.6 13 Noroeste 26 Noroeste 0 -- -- 39
2020-06-19 00:00:00 20.6 13 Noroeste 27 Noroeste 0 -- -- 39
2020-06-18 23:00:00 20.7 5 Norte 19 Norte 0 -- -- 43
2020-06-18 22:00:00 21.4 5 Noroeste 10 Noroeste 0 -- -- 43
2020-06-18 21:00:00 22.6 4 Noroeste 7 Noroeste 0 -- -- 40
2020-06-18 20:00:00 23.7 6 Noroeste 19 Norte 0 -- -- 37
2020-06-18 19:00:00 23.9 4 Oeste 12 Este 0 -- -- 37
2020-06-18 18:00:00 26.2 5 Oeste 19 Oeste 0 -- -- 34
2020-06-18 17:00:00 26.3 8 Sudoeste 19 Oeste 0 -- -- 32
2020-06-18 16:00:00 25.3 11 Sur 21 Sudeste 0 -- -- 33
2020-06-18 15:00:00 25.2 10 Este 26 Sudeste 0 -- -- 34
2020-06-18 14:00:00 26.1 9 Sur 26 Sur 0 -- -- 34
2020-06-18 13:00:00 24.8 7 Sur 19 Sur 0 -- -- 36
2020-06-18 12:00:00 23 7 Sudeste 18 Sur 0 -- -- 39
2020-06-18 11:00:00 23.1 5 Sur 15 Sudeste 0 -- -- 39
2020-06-18 10:00:00 21.1 6 Sur 12 Sur 0 -- -- 43
2020-06-18 09:00:00 19.6 4 Sur 8 Sur 0 -- -- 46
2020-06-18 08:00:00 17.2 3 Este 5 Sur 0 -- -- 52
2020-06-18 07:00:00 12.7 2 Oeste 8 Sudoeste 0 -- -- 64
2020-06-18 06:00:00 13.4 3 Este 11 Nordeste 0 -- -- 60
2020-06-18 05:00:00 14.1 2 Este 14 Norte 0 -- -- 56
2020-06-18 04:00:00 15.9 5 Noroeste 20 Noroeste 0 -- -- 50
2020-06-18 03:00:00 16.8 9 Oeste 19 Oeste -- -- -- 48
2020-06-18 02:00:00 17.1 9 Oeste 18 Noroeste 0 -- -- 45
2020-06-18 01:00:00 16.1 3 Noroeste 15 Oeste 0 -- -- 47
2020-06-18 00:00:00 15.3 2 Norte 11 Oeste 0 -- -- 49
2020-06-17 23:00:00 17.8 5 Noroeste 14 Noroeste 0 -- -- 42
2020-06-17 22:00:00 18.6 8 Oeste 12 Oeste 0 -- -- 42
2020-06-17 21:00:00 20.1 4 Noroeste 12 Noroeste 0 -- -- 39
2020-06-17 20:00:00 21.6 5 Norte 13 Noroeste 0 -- -- 39
2020-06-17 19:00:00 22.1 3 Nordeste 10 Sudoeste 0 -- -- 38
2020-06-17 18:00:00 22.2 3 Sudoeste 8 Oeste 0 -- -- 37
2020-06-17 17:00:00 23 4 Sudoeste 15 Sudoeste 0 -- -- 37
2020-06-17 16:00:00 22 3 Sudoeste 19 Sur 0 -- -- 39
2020-06-17 15:00:00 21.1 11 Este 22 Este 0 -- -- 37
2020-06-17 14:00:00 22.6 6 Noroeste 21 Nordeste 0 -- -- 34
2020-06-17 13:00:00 21.4 9 Noroeste 22 Noroeste 0 -- -- 38
2020-06-17 12:00:00 20.3 4 Noroeste 26 Noroeste 0 -- -- 42
2020-06-17 11:00:00 19.6 8 Noroeste 26 Noroeste 0 -- -- 45
2020-06-17 10:00:00 18.5 5 Noroeste 21 Oeste 0 -- -- 50
2020-06-17 09:00:00 16 8 Noroeste 33 Noroeste 0 -- -- 57
2020-06-17 08:00:00 13.6 15 Oeste 32 Noroeste 0 -- -- 65
2020-06-17 07:00:00 11 6 Oeste 17 Oeste 0 -- -- 74
2020-06-17 06:00:00 11.5 5 Nordeste 27 Norte 0 -- -- 71
2020-06-17 05:00:00 12.6 8 Noroeste 30 Noroeste 0 -- -- 68
2020-06-17 04:00:00 13.3 12 Noroeste 33 Noroeste 0 -- -- 64
2020-06-17 03:00:00 14.2 13 Noroeste 39 Noroeste 0 -- -- 60
2020-06-17 02:00:00 15 20 Noroeste 37 Noroeste 0 -- -- 58